sensor_id;sensor_type;location;lat;lon;timestamp;temperature;humidity
15930;DHT22;8064;51.142;4.780;2024-03-02T00:02:13;8.00;99.90
15930;DHT22;8064;51.142;4.780;2024-03-02T00:04:39;8.00;99.90
15930;DHT22;8064;51.142;4.780;2024-03-02T00:07:06;8.00;99.90
15930;DHT22;8064;51.142;4.780;2024-03-02T00:09:33;8.00;99.90
15930;DHT22;8064;51.142;4.780;2024-03-02T00:12:00;8.00;99.90
15930;DHT22;8064;51.142;4.780;2024-03-02T00:14:29;8.00;99.90
15930;DHT22;8064;51.142;4.780;2024-03-02T00:16:56;8.00;99.90
15930;DHT22;8064;51.142;4.780;2024-03-02T00:19:22;8.00;99.90
15930;DHT22;8064;51.142;4.780;2024-03-02T00:21:48;8.00;99.90
15930;DHT22;8064;51.142;4.780;2024-03-02T00:24:21;8.00;99.90
15930;DHT22;8064;51.142;4.780;2024-03-02T00:26:47;8.00;99.90
15930;DHT22;8064;51.142;4.780;2024-03-02T00:29:16;8.00;99.90
15930;DHT22;8064;51.142;4.780;2024-03-02T00:31:43;8.00;99.90
15930;DHT22;8064;51.142;4.780;2024-03-02T00:34:10;8.00;99.90
15930;DHT22;8064;51.142;4.780;2024-03-02T00:36:38;8.00;99.90
15930;DHT22;8064;51.142;4.780;2024-03-02T00:39:05;8.00;99.90
15930;DHT22;8064;51.142;4.780;2024-03-02T00:41:33;8.00;99.90
15930;DHT22;8064;51.142;4.780;2024-03-02T00:44:04;8.00;99.90
15930;DHT22;8064;51.142;4.780;2024-03-02T00:46:34;7.90;99.90
15930;DHT22;8064;51.142;4.780;2024-03-02T00:49:02;7.90;99.90
15930;DHT22;8064;51.142;4.780;2024-03-02T00:51:30;7.90;99.90
15930;DHT22;8064;51.142;4.780;2024-03-02T00:53:59;8.00;99.90
15930;DHT22;8064;51.142;4.780;2024-03-02T00:56:25;8.00;99.90
15930;DHT22;8064;51.142;4.780;2024-03-02T00:58:52;7.90;99.90
15930;DHT22;8064;51.142;4.780;2024-03-02T01:01:18;7.90;99.90
15930;DHT22;8064;51.142;4.780;2024-03-02T01:03:45;7.90;99.90
15930;DHT22;8064;51.142;4.780;2024-03-02T01:06:11;7.90;99.90
15930;DHT22;8064;51.142;4.780;2024-03-02T01:08:37;7.90;99.90
15930;DHT22;8064;51.142;4.780;2024-03-02T01:11:04;7.90;99.90
15930;DHT22;8064;51.142;4.780;2024-03-02T01:13:30;7.90;99.90
15930;DHT22;8064;51.142;4.780;2024-03-02T01:15:56;7.90;99.90
15930;DHT22;8064;51.142;4.780;2024-03-02T01:18:23;7.90;99.90
15930;DHT22;8064;51.142;4.780;2024-03-02T01:20:49;7.90;99.90
15930;DHT22;8064;51.142;4.780;2024-03-02T01:23:18;7.90;99.90
15930;DHT22;8064;51.142;4.780;2024-03-02T01:25:45;8.00;99.90
15930;DHT22;8064;51.142;4.780;2024-03-02T01:28:12;8.00;99.90
15930;DHT22;8064;51.142;4.780;2024-03-02T01:30:38;7.90;99.90
15930;DHT22;8064;51.142;4.780;2024-03-02T01:33:04;7.90;99.90
15930;DHT22;8064;51.142;4.780;2024-03-02T01:35:31;7.90;99.90
15930;DHT22;8064;51.142;4.780;2024-03-02T01:37:57;7.90;99.90
15930;DHT22;8064;51.142;4.780;2024-03-02T01:40:23;7.90;99.90
15930;DHT22;8064;51.142;4.780;2024-03-02T01:42:52;7.90;99.90
15930;DHT22;8064;51.142;4.780;2024-03-02T01:45:19;7.90;99.90
15930;DHT22;8064;51.142;4.780;2024-03-02T01:47:45;7.90;99.90
15930;DHT22;8064;51.142;4.780;2024-03-02T01:50:11;7.90;99.90
15930;DHT22;8064;51.142;4.780;2024-03-02T01:52:37;7.90;99.90
15930;DHT22;8064;51.142;4.780;2024-03-02T01:55:04;8.00;99.90
15930;DHT22;8064;51.142;4.780;2024-03-02T01:57:30;7.90;99.90
15930;DHT22;8064;51.142;4.780;2024-03-02T01:59:56;8.00;99.90
15930;DHT22;8064;51.142;4.780;2024-03-02T02:02:22;7.90;99.90
15930;DHT22;8064;51.142;4.780;2024-03-02T02:04:48;7.90;99.90
15930;DHT22;8064;51.142;4.780;2024-03-02T02:07:13;7.90;99.90
15930;DHT22;8064;51.142;4.780;2024-03-02T02:09:41;7.90;99.90
15930;DHT22;8064;51.142;4.780;2024-03-02T02:12:07;7.90;99.90
15930;DHT22;8064;51.142;4.780;2024-03-02T02:14:33;7.90;99.90
15930;DHT22;8064;51.142;4.780;2024-03-02T02:16:59;7.90;99.90
15930;DHT22;8064;51.142;4.780;2024-03-02T02:19:25;7.90;99.90
15930;DHT22;8064;51.142;4.780;2024-03-02T02:21:51;7.90;99.90
15930;DHT22;8064;51.142;4.780;2024-03-02T02:24:17;7.90;99.90
15930;DHT22;8064;51.142;4.780;2024-03-02T02:26:42;7.90;99.90
15930;DHT22;8064;51.142;4.780;2024-03-02T02:29:08;7.90;99.90
15930;DHT22;8064;51.142;4.780;2024-03-02T02:31:40;7.90;99.90
15930;DHT22;8064;51.142;4.780;2024-03-02T02:34:06;7.90;99.90
15930;DHT22;8064;51.142;4.780;2024-03-02T02:36:33;7.90;99.90
15930;DHT22;8064;51.142;4.780;2024-03-02T02:39:02;7.90;99.90
15930;DHT22;8064;51.142;4.780;2024-03-02T02:41:29;7.90;99.90
15930;DHT22;8064;51.142;4.780;2024-03-02T02:43:56;7.90;99.90
15930;DHT22;8064;51.142;4.780;2024-03-02T02:46:22;7.90;99.90
15930;DHT22;8064;51.142;4.780;2024-03-02T02:48:48;7.90;99.90
15930;DHT22;8064;51.142;4.780;2024-03-02T02:51:13;7.90;99.90
15930;DHT22;8064;51.142;4.780;2024-03-02T02:53:39;7.90;99.90
15930;DHT22;8064;51.142;4.780;2024-03-02T02:56:06;7.90;99.90
15930;DHT22;8064;51.142;4.780;2024-03-02T02:58:32;7.90;99.90
15930;DHT22;8064;51.142;4.780;2024-03-02T03:00:58;7.90;99.90
15930;DHT22;8064;51.142;4.780;2024-03-02T03:03:24;7.90;99.90
15930;DHT22;8064;51.142;4.780;2024-03-02T03:05:50;7.90;99.90
15930;DHT22;8064;51.142;4.780;2024-03-02T03:08:15;7.90;99.90
15930;DHT22;8064;51.142;4.780;2024-03-02T03:10:42;7.90;99.90
15930;DHT22;8064;51.142;4.780;2024-03-02T03:13:07;7.90;99.90
15930;DHT22;8064;51.142;4.780;2024-03-02T03:15:35;7.90;99.90
15930;DHT22;8064;51.142;4.780;2024-03-02T03:18:03;8.00;99.90
15930;DHT22;8064;51.142;4.780;2024-03-02T03:20:29;8.00;99.90
15930;DHT22;8064;51.142;4.780;2024-03-02T03:22:56;8.00;99.90
15930;DHT22;8064;51.142;4.780;2024-03-02T03:25:21;8.00;99.90
15930;DHT22;8064;51.142;4.780;2024-03-02T03:27:47;8.00;99.90
15930;DHT22;8064;51.142;4.780;2024-03-02T03:30:13;7.90;99.90
15930;DHT22;8064;51.142;4.780;2024-03-02T03:32:39;7.90;99.90
15930;DHT22;8064;51.142;4.780;2024-03-02T03:35:06;7.90;99.90
15930;DHT22;8064;51.142;4.780;2024-03-02T03:37:32;7.90;99.90
15930;DHT22;8064;51.142;4.780;2024-03-02T03:39:59;7.90;99.90
15930;DHT22;8064;51.142;4.780;2024-03-02T03:42:26;7.90;99.90
15930;DHT22;8064;51.142;4.780;2024-03-02T03:44:52;7.90;99.90
15930;DHT22;8064;51.142;4.780;2024-03-02T03:47:18;7.80;99.90
15930;DHT22;8064;51.142;4.780;2024-03-02T03:49:44;7.80;99.90
15930;DHT22;8064;51.142;4.780;2024-03-02T03:52:09;7.80;99.90
15930;DHT22;8064;51.142;4.780;2024-03-02T03:54:35;7.70;99.90
15930;DHT22;8064;51.142;4.780;2024-03-02T03:57:02;7.60;99.90
15930;DHT22;8064;51.142;4.780;2024-03-02T03:59:29;7.60;99.90
15930;DHT22;8064;51.142;4.780;2024-03-02T04:01:54;7.50;99.90
15930;DHT22;8064;51.142;4.780;2024-03-02T04:04:20;7.50;99.90
15930;DHT22;8064;51.142;4.780;2024-03-02T04:06:46;7.40;99.90
15930;DHT22;8064;51.142;4.780;2024-03-02T04:09:12;7.30;99.90
15930;DHT22;8064;51.142;4.780;2024-03-02T04:11:38;7.30;99.90
15930;DHT22;8064;51.142;4.780;2024-03-02T04:14:03;7.20;99.90
15930;DHT22;8064;51.142;4.780;2024-03-02T04:16:31;7.20;99.90
15930;DHT22;8064;51.142;4.780;2024-03-02T04:18:57;7.10;99.90
15930;DHT22;8064;51.142;4.780;2024-03-02T04:21:23;7.10;99.90
15930;DHT22;8064;51.142;4.780;2024-03-02T04:23:48;7.00;99.90
15930;DHT22;8064;51.142;4.780;2024-03-02T04:26:14;7.00;99.90
15930;DHT22;8064;51.142;4.780;2024-03-02T04:28:45;6.90;99.90
15930;DHT22;8064;51.142;4.780;2024-03-02T04:31:10;7.00;99.90
15930;DHT22;8064;51.142;4.780;2024-03-02T04:33:36;6.90;99.90
15930;DHT22;8064;51.142;4.780;2024-03-02T04:36:02;6.90;99.90
15930;DHT22;8064;51.142;4.780;2024-03-02T04:38:28;6.90;99.90
15930;DHT22;8064;51.142;4.780;2024-03-02T04:40:54;6.90;99.90
15930;DHT22;8064;51.142;4.780;2024-03-02T04:43:20;6.80;99.90
15930;DHT22;8064;51.142;4.780;2024-03-02T04:45:45;6.80;99.90
15930;DHT22;8064;51.142;4.780;2024-03-02T04:48:11;6.80;99.90
15930;DHT22;8064;51.142;4.780;2024-03-02T04:50:37;6.80;99.90
15930;DHT22;8064;51.142;4.780;2024-03-02T04:53:03;6.80;99.90
15930;DHT22;8064;51.142;4.780;2024-03-02T04:55:29;6.80;99.90
15930;DHT22;8064;51.142;4.780;2024-03-02T04:57:55;6.80;99.90
15930;DHT22;8064;51.142;4.780;2024-03-02T05:00:20;6.70;99.90
15930;DHT22;8064;51.142;4.780;2024-03-02T05:02:47;6.70;99.90
15930;DHT22;8064;51.142;4.780;2024-03-02T05:05:12;6.70;99.90
15930;DHT22;8064;51.142;4.780;2024-03-02T05:07:40;6.60;99.90
15930;DHT22;8064;51.142;4.780;2024-03-02T05:10:08;6.60;99.90
15930;DHT22;8064;51.142;4.780;2024-03-02T05:12:34;6.60;99.90
15930;DHT22;8064;51.142;4.780;2024-03-02T05:15:20;6.50;99.90
15930;DHT22;8064;51.142;4.780;2024-03-02T05:17:47;6.50;99.90
15930;DHT22;8064;51.142;4.780;2024-03-02T05:20:12;6.50;99.90
15930;DHT22;8064;51.142;4.780;2024-03-02T05:22:38;6.50;99.90
15930;DHT22;8064;51.142;4.780;2024-03-02T05:25:06;6.50;99.90
15930;DHT22;8064;51.142;4.780;2024-03-02T05:27:32;6.50;99.90
15930;DHT22;8064;51.142;4.780;2024-03-02T05:29:59;6.50;99.90
15930;DHT22;8064;51.142;4.780;2024-03-02T05:32:24;6.50;99.90
15930;DHT22;8064;51.142;4.780;2024-03-02T05:34:50;6.50;99.90
15930;DHT22;8064;51.142;4.780;2024-03-02T05:37:17;6.50;99.90
15930;DHT22;8064;51.142;4.780;2024-03-02T05:39:42;6.50;99.90
15930;DHT22;8064;51.142;4.780;2024-03-02T05:42:09;6.50;99.90
15930;DHT22;8064;51.142;4.780;2024-03-02T05:44:36;6.50;99.90
15930;DHT22;8064;51.142;4.780;2024-03-02T05:47:02;6.50;99.90
15930;DHT22;8064;51.142;4.780;2024-03-02T05:49:28;6.50;99.90
15930;DHT22;8064;51.142;4.780;2024-03-02T05:51:54;6.50;99.90
15930;DHT22;8064;51.142;4.780;2024-03-02T05:54:20;6.40;99.90
15930;DHT22;8064;51.142;4.780;2024-03-02T05:56:46;6.40;99.90
15930;DHT22;8064;51.142;4.780;2024-03-02T05:59:11;6.40;99.90
15930;DHT22;8064;51.142;4.780;2024-03-02T06:01:45;6.40;99.90
15930;DHT22;8064;51.142;4.780;2024-03-02T06:04:12;6.30;99.90
15930;DHT22;8064;51.142;4.780;2024-03-02T06:06:39;6.30;99.90
15930;DHT22;8064;51.142;4.780;2024-03-02T06:09:05;6.30;99.90
15930;DHT22;8064;51.142;4.780;2024-03-02T06:11:35;6.30;99.90
15930;DHT22;8064;51.142;4.780;2024-03-02T06:14:02;6.30;99.90
15930;DHT22;8064;51.142;4.780;2024-03-02T06:16:27;6.20;99.90
15930;DHT22;8064;51.142;4.780;2024-03-02T06:18:53;6.20;99.90
15930;DHT22;8064;51.142;4.780;2024-03-02T06:21:20;6.20;99.90
15930;DHT22;8064;51.142;4.780;2024-03-02T06:23:46;6.20;99.90
15930;DHT22;8064;51.142;4.780;2024-03-02T06:26:12;6.20;99.90
15930;DHT22;8064;51.142;4.780;2024-03-02T06:28:38;6.20;99.90
15930;DHT22;8064;51.142;4.780;2024-03-02T06:31:04;6.20;99.90
15930;DHT22;8064;51.142;4.780;2024-03-02T06:33:30;6.20;99.90
15930;DHT22;8064;51.142;4.780;2024-03-02T06:35:55;6.20;99.90
15930;DHT22;8064;51.142;4.780;2024-03-02T06:38:21;6.20;99.90
15930;DHT22;8064;51.142;4.780;2024-03-02T06:40:47;6.30;99.90
15930;DHT22;8064;51.142;4.780;2024-03-02T06:43:12;6.30;99.90
15930;DHT22;8064;51.142;4.780;2024-03-02T06:45:38;6.30;99.90
15930;DHT22;8064;51.142;4.780;2024-03-02T06:48:04;6.30;99.90
15930;DHT22;8064;51.142;4.780;2024-03-02T06:50:30;6.40;99.90
15930;DHT22;8064;51.142;4.780;2024-03-02T06:52:56;6.40;99.90
15930;DHT22;8064;51.142;4.780;2024-03-02T06:55:22;6.40;99.90
15930;DHT22;8064;51.142;4.780;2024-03-02T06:57:50;6.50;99.90
15930;DHT22;8064;51.142;4.780;2024-03-02T07:00:16;6.50;99.90
15930;DHT22;8064;51.142;4.780;2024-03-02T07:02:44;6.50;99.90
15930;DHT22;8064;51.142;4.780;2024-03-02T07:05:10;6.50;99.90
15930;DHT22;8064;51.142;4.780;2024-03-02T07:07:36;6.50;99.90
15930;DHT22;8064;51.142;4.780;2024-03-02T07:10:04;6.50;99.90
15930;DHT22;8064;51.142;4.780;2024-03-02T07:12:30;6.50;99.90
15930;DHT22;8064;51.142;4.780;2024-03-02T07:14:56;6.50;99.90
15930;DHT22;8064;51.142;4.780;2024-03-02T07:17:37;6.50;99.90
15930;DHT22;8064;51.142;4.780;2024-03-02T07:20:03;6.50;99.90
15930;DHT22;8064;51.142;4.780;2024-03-02T07:22:29;6.60;99.90
15930;DHT22;8064;51.142;4.780;2024-03-02T07:24:55;6.70;99.90
15930;DHT22;8064;51.142;4.780;2024-03-02T07:27:21;6.90;99.90
15930;DHT22;8064;51.142;4.780;2024-03-02T07:29:47;7.00;99.90
15930;DHT22;8064;51.142;4.780;2024-03-02T07:32:13;7.10;99.90
15930;DHT22;8064;51.142;4.780;2024-03-02T07:34:38;7.30;99.90
15930;DHT22;8064;51.142;4.780;2024-03-02T07:37:04;7.40;99.90
15930;DHT22;8064;51.142;4.780;2024-03-02T07:39:31;7.60;99.90
15930;DHT22;8064;51.142;4.780;2024-03-02T07:41:57;7.70;99.90
15930;DHT22;8064;51.142;4.780;2024-03-02T07:44:22;7.70;99.90
15930;DHT22;8064;51.142;4.780;2024-03-02T07:46:48;7.80;99.90
15930;DHT22;8064;51.142;4.780;2024-03-02T07:49:16;7.80;99.90
15930;DHT22;8064;51.142;4.780;2024-03-02T07:51:42;7.90;99.90
15930;DHT22;8064;51.142;4.780;2024-03-02T07:54:08;8.00;99.90
15930;DHT22;8064;51.142;4.780;2024-03-02T07:56:34;8.10;99.90
15930;DHT22;8064;51.142;4.780;2024-03-02T07:59:02;8.20;99.90
15930;DHT22;8064;51.142;4.780;2024-03-02T08:01:30;8.30;99.90
15930;DHT22;8064;51.142;4.780;2024-03-02T08:03:58;8.40;99.90
15930;DHT22;8064;51.142;4.780;2024-03-02T08:06:26;8.50;99.90
15930;DHT22;8064;51.142;4.780;2024-03-02T08:08:54;8.70;99.90
15930;DHT22;8064;51.142;4.780;2024-03-02T08:11:21;8.80;99.90
15930;DHT22;8064;51.142;4.780;2024-03-02T08:13:47;8.90;99.90
15930;DHT22;8064;51.142;4.780;2024-03-02T08:16:15;9.10;99.90
15930;DHT22;8064;51.142;4.780;2024-03-02T08:18:41;9.20;99.90
15930;DHT22;8064;51.142;4.780;2024-03-02T08:21:07;9.40;99.90
15930;DHT22;8064;51.142;4.780;2024-03-02T08:23:34;9.50;99.90
15930;DHT22;8064;51.142;4.780;2024-03-02T08:26:00;9.60;99.90
15930;DHT22;8064;51.142;4.780;2024-03-02T08:28:25;9.80;99.90
15930;DHT22;8064;51.142;4.780;2024-03-02T08:30:51;9.90;99.90
15930;DHT22;8064;51.142;4.780;2024-03-02T08:33:17;10.10;99.90
15930;DHT22;8064;51.142;4.780;2024-03-02T08:35:43;10.20;99.90
15930;DHT22;8064;51.142;4.780;2024-03-02T08:38:08;10.30;99.90
15930;DHT22;8064;51.142;4.780;2024-03-02T08:40:35;10.50;99.90
15930;DHT22;8064;51.142;4.780;2024-03-02T08:43:01;10.60;99.90
15930;DHT22;8064;51.142;4.780;2024-03-02T08:45:27;10.70;99.90
15930;DHT22;8064;51.142;4.780;2024-03-02T08:47:53;10.80;99.90
15930;DHT22;8064;51.142;4.780;2024-03-02T08:50:18;10.90;99.90
15930;DHT22;8064;51.142;4.780;2024-03-02T08:52:44;11.10;99.90
15930;DHT22;8064;51.142;4.780;2024-03-02T08:55:10;11.30;99.90
15930;DHT22;8064;51.142;4.780;2024-03-02T08:57:36;11.50;99.90
15930;DHT22;8064;51.142;4.780;2024-03-02T09:00:03;11.60;99.90
15930;DHT22;8064;51.142;4.780;2024-03-02T09:02:31;11.70;99.90
15930;DHT22;8064;51.142;4.780;2024-03-02T09:04:57;11.90;99.90
15930;DHT22;8064;51.142;4.780;2024-03-02T09:07:23;12.00;99.90
15930;DHT22;8064;51.142;4.780;2024-03-02T09:09:49;12.10;99.90
15930;DHT22;8064;51.142;4.780;2024-03-02T09:12:15;12.20;99.90
15930;DHT22;8064;51.142;4.780;2024-03-02T09:14:41;12.30;99.90
15930;DHT22;8064;51.142;4.780;2024-03-02T09:17:07;12.40;99.90
15930;DHT22;8064;51.142;4.780;2024-03-02T09:19:35;12.60;99.90
15930;DHT22;8064;51.142;4.780;2024-03-02T09:22:00;12.70;99.90
15930;DHT22;8064;51.142;4.780;2024-03-02T09:24:28;12.80;99.90
15930;DHT22;8064;51.142;4.780;2024-03-02T09:26:54;12.90;99.90
15930;DHT22;8064;51.142;4.780;2024-03-02T09:29:20;13.00;99.90
15930;DHT22;8064;51.142;4.780;2024-03-02T09:31:46;13.20;99.90
15930;DHT22;8064;51.142;4.780;2024-03-02T09:34:12;13.30;99.90
15930;DHT22;8064;51.142;4.780;2024-03-02T09:36:40;13.30;99.90
15930;DHT22;8064;51.142;4.780;2024-03-02T09:39:08;13.50;99.90
15930;DHT22;8064;51.142;4.780;2024-03-02T09:41:36;13.60;99.90
15930;DHT22;8064;51.142;4.780;2024-03-02T09:44:02;14.00;99.90
15930;DHT22;8064;51.142;4.780;2024-03-02T09:46:28;15.00;99.90
15930;DHT22;8064;51.142;4.780;2024-03-02T09:48:54;16.60;99.90
15930;DHT22;8064;51.142;4.780;2024-03-02T09:51:20;18.70;96.10
15930;DHT22;8064;51.142;4.780;2024-03-02T09:53:47;21.00;91.80
15930;DHT22;8064;51.142;4.780;2024-03-02T09:56:13;23.00;83.80
15930;DHT22;8064;51.142;4.780;2024-03-02T09:58:39;24.50;77.30
15930;DHT22;8064;51.142;4.780;2024-03-02T10:01:06;26.00;71.40
15930;DHT22;8064;51.142;4.780;2024-03-02T10:03:33;27.20;66.60
15930;DHT22;8064;51.142;4.780;2024-03-02T10:06:19;28.40;62.10
15930;DHT22;8064;51.142;4.780;2024-03-02T10:08:46;29.40;58.30
15930;DHT22;8064;51.142;4.780;2024-03-02T10:11:29;30.30;56.90
15930;DHT22;8064;51.142;4.780;2024-03-02T10:14:12;31.00;53.90
15930;DHT22;8064;51.142;4.780;2024-03-02T10:16:39;31.80;51.80
15930;DHT22;8064;51.142;4.780;2024-03-02T10:19:17;32.40;51.10
15930;DHT22;8064;51.142;4.780;2024-03-02T10:21:44;32.80;48.90
15930;DHT22;8064;51.142;4.780;2024-03-02T10:24:10;32.20;49.50
15930;DHT22;8064;51.142;4.780;2024-03-02T10:26:36;32.50;48.80
15930;DHT22;8064;51.142;4.780;2024-03-02T10:29:03;30.50;50.30
15930;DHT22;8064;51.142;4.780;2024-03-02T10:31:28;28.70;52.70
15930;DHT22;8064;51.142;4.780;2024-03-02T10:33:55;28.30;52.20
15930;DHT22;8064;51.142;4.780;2024-03-02T10:36:21;29.80;51.10
15930;DHT22;8064;51.142;4.780;2024-03-02T10:38:47;31.40;49.20
15930;DHT22;8064;51.142;4.780;2024-03-02T10:41:18;32.90;47.20
15930;DHT22;8064;51.142;4.780;2024-03-02T10:43:45;33.60;44.70
15930;DHT22;8064;51.142;4.780;2024-03-02T10:46:12;33.60;45.40
15930;DHT22;8064;51.142;4.780;2024-03-02T10:48:41;33.50;45.10
15930;DHT22;8064;51.142;4.780;2024-03-02T10:51:08;33.20;45.20
15930;DHT22;8064;51.142;4.780;2024-03-02T10:53:34;33.20;45.30
15930;DHT22;8064;51.142;4.780;2024-03-02T10:56:00;33.20;44.90
15930;DHT22;8064;51.142;4.780;2024-03-02T10:58:32;32.00;45.50
15930;DHT22;8064;51.142;4.780;2024-03-02T11:01:02;31.50;45.50
15930;DHT22;8064;51.142;4.780;2024-03-02T11:03:33;29.00;47.70
15930;DHT22;8064;51.142;4.780;2024-03-02T11:06:00;29.90;47.20
15930;DHT22;8064;51.142;4.780;2024-03-02T11:08:34;29.70;47.10
15930;DHT22;8064;51.142;4.780;2024-03-02T11:11:07;30.60;45.90
15930;DHT22;8064;51.142;4.780;2024-03-02T11:13:37;32.00;44.20
15930;DHT22;8064;51.142;4.780;2024-03-02T11:16:16;32.70;43.80
15930;DHT22;8064;51.142;4.780;2024-03-02T11:18:44;32.70;43.10
15930;DHT22;8064;51.142;4.780;2024-03-02T11:21:11;31.50;43.90
15930;DHT22;8064;51.142;4.780;2024-03-02T11:23:37;31.10;44.60
15930;DHT22;8064;51.142;4.780;2024-03-02T11:26:22;29.60;45.40
15930;DHT22;8064;51.142;4.780;2024-03-02T11:28:49;27.80;46.80
15930;DHT22;8064;51.142;4.780;2024-03-02T11:31:15;26.70;48.70
15930;DHT22;8064;51.142;4.780;2024-03-02T11:33:40;25.50;50.00
15930;DHT22;8064;51.142;4.780;2024-03-02T11:36:07;24.50;52.40
15930;DHT22;8064;51.142;4.780;2024-03-02T11:38:34;24.00;53.50
15930;DHT22;8064;51.142;4.780;2024-03-02T11:41:01;23.10;54.50
15930;DHT22;8064;51.142;4.780;2024-03-02T11:43:29;22.60;55.80
15930;DHT22;8064;51.142;4.780;2024-03-02T11:46:03;22.10;56.50
15930;DHT22;8064;51.142;4.780;2024-03-02T11:48:32;21.60;57.30
15930;DHT22;8064;51.142;4.780;2024-03-02T11:51:00;21.20;58.00
15930;DHT22;8064;51.142;4.780;2024-03-02T11:53:27;21.00;58.90
15930;DHT22;8064;51.142;4.780;2024-03-02T11:55:55;20.70;58.50
15930;DHT22;8064;51.142;4.780;2024-03-02T11:58:21;20.40;58.90
15930;DHT22;8064;51.142;4.780;2024-03-02T12:00:51;20.10;59.30
15930;DHT22;8064;51.142;4.780;2024-03-02T12:03:17;19.70;59.80
15930;DHT22;8064;51.142;4.780;2024-03-02T12:05:43;19.50;60.80
15930;DHT22;8064;51.142;4.780;2024-03-02T12:08:11;19.30;61.20
15930;DHT22;8064;51.142;4.780;2024-03-02T12:10:38;19.10;61.70
15930;DHT22;8064;51.142;4.780;2024-03-02T12:13:05;18.90;62.20
15930;DHT22;8064;51.142;4.780;2024-03-02T12:15:34;18.60;62.50
15930;DHT22;8064;51.142;4.780;2024-03-02T12:18:01;18.30;63.10
15930;DHT22;8064;51.142;4.780;2024-03-02T12:20:29;17.90;63.50
15930;DHT22;8064;51.142;4.780;2024-03-02T12:22:57;17.70;64.30
15930;DHT22;8064;51.142;4.780;2024-03-02T12:25:24;17.60;64.80
15930;DHT22;8064;51.142;4.780;2024-03-02T12:27:52;17.50;65.20
15930;DHT22;8064;51.142;4.780;2024-03-02T12:30:19;17.40;66.00
15930;DHT22;8064;51.142;4.780;2024-03-02T12:32:45;17.30;66.30
15930;DHT22;8064;51.142;4.780;2024-03-02T12:35:12;17.20;66.10
15930;DHT22;8064;51.142;4.780;2024-03-02T12:37:47;17.20;66.50
15930;DHT22;8064;51.142;4.780;2024-03-02T12:40:14;17.10;66.70
15930;DHT22;8064;51.142;4.780;2024-03-02T12:42:41;16.80;67.70
15930;DHT22;8064;51.142;4.780;2024-03-02T12:45:08;16.70;68.50
15930;DHT22;8064;51.142;4.780;2024-03-02T12:47:35;16.40;67.90
15930;DHT22;8064;51.142;4.780;2024-03-02T12:50:01;16.30;68.10
15930;DHT22;8064;51.142;4.780;2024-03-02T12:52:28;16.10;68.40
15930;DHT22;8064;51.142;4.780;2024-03-02T12:54:54;16.00;68.80
15930;DHT22;8064;51.142;4.780;2024-03-02T12:57:26;15.90;69.60
15930;DHT22;8064;51.142;4.780;2024-03-02T13:00:00;15.80;70.10
15930;DHT22;8064;51.142;4.780;2024-03-02T13:02:29;15.70;70.30
15930;DHT22;8064;51.142;4.780;2024-03-02T13:04:55;15.60;70.50
15930;DHT22;8064;51.142;4.780;2024-03-02T13:07:23;15.50;71.00
15930;DHT22;8064;51.142;4.780;2024-03-02T13:09:50;15.50;71.60
15930;DHT22;8064;51.142;4.780;2024-03-02T13:12:17;15.40;71.90
15930;DHT22;8064;51.142;4.780;2024-03-02T13:14:43;15.30;72.20
15930;DHT22;8064;51.142;4.780;2024-03-02T13:17:09;15.10;72.50
15930;DHT22;8064;51.142;4.780;2024-03-02T13:19:35;15.10;72.80
15930;DHT22;8064;51.142;4.780;2024-03-02T13:22:01;15.00;73.10
15930;DHT22;8064;51.142;4.780;2024-03-02T13:24:29;14.90;73.10
15930;DHT22;8064;51.142;4.780;2024-03-02T13:26:55;14.90;73.50
15930;DHT22;8064;51.142;4.780;2024-03-02T13:29:23;14.90;74.00
15930;DHT22;8064;51.142;4.780;2024-03-02T13:31:50;15.00;74.40
15930;DHT22;8064;51.142;4.780;2024-03-02T13:34:16;15.10;74.60
15930;DHT22;8064;51.142;4.780;2024-03-02T13:36:41;15.20;74.70
15930;DHT22;8064;51.142;4.780;2024-03-02T13:39:07;15.30;75.00
15930;DHT22;8064;51.142;4.780;2024-03-02T13:41:36;15.40;75.10
15930;DHT22;8064;51.142;4.780;2024-03-02T13:44:01;15.50;75.50
15930;DHT22;8064;51.142;4.780;2024-03-02T13:46:28;15.50;75.30
15930;DHT22;8064;51.142;4.780;2024-03-02T13:48:54;15.50;75.10
15930;DHT22;8064;51.142;4.780;2024-03-02T13:51:21;15.60;75.10
15930;DHT22;8064;51.142;4.780;2024-03-02T13:53:46;15.70;75.30
15930;DHT22;8064;51.142;4.780;2024-03-02T13:56:12;15.60;75.30
15930;DHT22;8064;51.142;4.780;2024-03-02T13:58:38;15.60;75.80
15930;DHT22;8064;51.142;4.780;2024-03-02T14:01:05;15.40;76.00
15930;DHT22;8064;51.142;4.780;2024-03-02T14:03:31;15.30;76.40
15930;DHT22;8064;51.142;4.780;2024-03-02T14:05:57;15.20;76.80
15930;DHT22;8064;51.142;4.780;2024-03-02T14:08:23;15.10;76.90
15930;DHT22;8064;51.142;4.780;2024-03-02T14:10:49;15.00;76.80
15930;DHT22;8064;51.142;4.780;2024-03-02T14:13:15;15.00;76.90
15930;DHT22;8064;51.142;4.780;2024-03-02T14:15:41;15.00;77.10
15930;DHT22;8064;51.142;4.780;2024-03-02T14:18:07;15.10;77.60
15930;DHT22;8064;51.142;4.780;2024-03-02T14:20:35;15.00;77.60
15930;DHT22;8064;51.142;4.780;2024-03-02T14:23:01;15.00;77.70
15930;DHT22;8064;51.142;4.780;2024-03-02T14:25:29;14.90;78.80
15930;DHT22;8064;51.142;4.780;2024-03-02T14:27:57;14.80;78.40
15930;DHT22;8064;51.142;4.780;2024-03-02T14:30:23;14.80;78.70
15930;DHT22;8064;51.142;4.780;2024-03-02T14:32:49;14.70;79.00
15930;DHT22;8064;51.142;4.780;2024-03-02T14:35:16;14.70;79.30
15930;DHT22;8064;51.142;4.780;2024-03-02T14:37:42;14.60;79.60
15930;DHT22;8064;51.142;4.780;2024-03-02T14:40:08;14.60;79.90
15930;DHT22;8064;51.142;4.780;2024-03-02T14:42:35;14.50;80.10
15930;DHT22;8064;51.142;4.780;2024-03-02T14:45:02;14.50;80.40
15930;DHT22;8064;51.142;4.780;2024-03-02T14:47:31;14.40;80.50
15930;DHT22;8064;51.142;4.780;2024-03-02T14:49:58;14.40;81.00
15930;DHT22;8064;51.142;4.780;2024-03-02T14:52:23;14.30;81.40
15930;DHT22;8064;51.142;4.780;2024-03-02T14:54:49;14.20;81.80
15930;DHT22;8064;51.142;4.780;2024-03-02T14:57:15;14.20;82.30
15930;DHT22;8064;51.142;4.780;2024-03-02T14:59:41;14.20;82.70
15930;DHT22;8064;51.142;4.780;2024-03-02T15:02:08;14.10;83.10
15930;DHT22;8064;51.142;4.780;2024-03-02T15:04:34;14.20;83.60
15930;DHT22;8064;51.142;4.780;2024-03-02T15:06:59;14.20;83.80
15930;DHT22;8064;51.142;4.780;2024-03-02T15:09:25;14.20;84.00
15930;DHT22;8064;51.142;4.780;2024-03-02T15:11:51;14.20;84.40
15930;DHT22;8064;51.142;4.780;2024-03-02T15:14:16;14.20;84.60
15930;DHT22;8064;51.142;4.780;2024-03-02T15:16:42;14.30;84.80
15930;DHT22;8064;51.142;4.780;2024-03-02T15:19:08;14.30;84.90
15930;DHT22;8064;51.142;4.780;2024-03-02T15:21:34;14.40;85.00
15930;DHT22;8064;51.142;4.780;2024-03-02T15:24:00;14.40;85.70
15930;DHT22;8064;51.142;4.780;2024-03-02T15:26:26;14.40;84.90
15930;DHT22;8064;51.142;4.780;2024-03-02T15:28:51;14.30;85.00
15930;DHT22;8064;51.142;4.780;2024-03-02T15:31:20;14.30;85.10
15930;DHT22;8064;51.142;4.780;2024-03-02T15:33:46;14.30;85.20
15930;DHT22;8064;51.142;4.780;2024-03-02T15:36:12;14.30;85.00
15930;DHT22;8064;51.142;4.780;2024-03-02T15:38:38;14.30;85.20
15930;DHT22;8064;51.142;4.780;2024-03-02T15:41:04;14.20;85.30
15930;DHT22;8064;51.142;4.780;2024-03-02T15:43:30;14.20;85.30
15930;DHT22;8064;51.142;4.780;2024-03-02T15:45:57;14.10;85.30
15930;DHT22;8064;51.142;4.780;2024-03-02T15:48:22;14.10;85.60
15930;DHT22;8064;51.142;4.780;2024-03-02T15:50:49;14.10;86.20
15930;DHT22;8064;51.142;4.780;2024-03-02T15:53:18;14.10;86.60